Uranium City, Canada
Current Conditions -  °F | °C
As of 11:00 AM on Saturday 25 Oct 2014 (Local Time) from CYSF Reporting Station
Overcast Overcast  
Wind Chill: 25°   Ceiling: 1500
Heat Index: 34°   Visibility: 9mi
Dew Point: 30°   Wind: 13mph
Humidity: 87%   Direction: 270°W
Pressure: 29.81"   Gusts: 21mph
Location:  59.57°N, 108.61°W
Report Text: CYSF 251700Z AUTO 27011G18KT 9SM OVC015 01/M01 A2981 RMK SLP109
Loading
Personal Weather Stations






























Interactive Weather Map
Tropical Storm Tracking
New forecast layout! Learn more

10-Day Weather Forecast

Advertisements
Track Severe Weather on mobile